Time;durP1;ratioP1;P1;durP2;ratioP2;P2;SDS_P1;SDS_P2;PMS_P1;PMS_P2;Temp;Humidity;BMP_temperature;BMP_pressure;BME280_temperature;BME280_humidity;BME280_pressure;Samples;Min_cycle;Max_cycle;Signal;HPM_P1;HPM_P2
2021/12/09 00:02:32;;;;;;;16.87;7.47;;;;;;;-2.27;100.00;100289.44;10505925;28;20230;-65
2021/12/09 00:07:35;;;;;;;14.57;7.80;;;;;;;-2.29;100.00;100297.78;10505527;28;20246;-68
2021/12/09 00:12:39;;;;;;;17.13;7.97;;;;;;;-2.30;100.00;100286.78;10505269;28;20707;-66
2021/12/09 00:17:44;;;;;;;17.73;7.50;;;;;;;-2.22;100.00;100289.59;10505107;28;20558;-67
2021/12/09 00:22:48;;;;;;;16.43;6.90;;;;;;;-2.18;100.00;100301.63;10505503;28;20220;-66
2021/12/09 00:27:52;;;;;;;18.70;8.10;;;;;;;-2.29;100.00;100303.75;10504598;28;20235;-65
2021/12/09 00:32:57;;;;;;;17.63;7.77;;;;;;;-2.44;100.00;100301.47;10504526;28;20303;-67
2021/12/09 00:38:04;;;;;;;18.77;8.73;;;;;;;-2.43;100.00;100308.28;10504201;28;20545;-67
2021/12/09 00:43:08;;;;;;;16.63;7.33;;;;;;;-2.40;100.00;100307.53;10503985;28;20208;-66
2021/12/09 00:48:13;;;;;;;18.87;8.37;;;;;;;-2.44;100.00;100319.25;10503722;28;20208;-68
2021/12/09 00:53:16;;;;;;;17.93;8.17;;;;;;;-2.60;100.00;100311.81;10503404;28;20546;-66
2021/12/09 00:58:20;;;;;;;20.23;8.00;;;;;;;-2.54;100.00;100324.75;10500330;28;20531;-68
2021/12/09 01:03:25;;;;;;;22.00;9.13;;;;;;;-2.62;100.00;100327.78;10500177;28;20230;-65
2021/12/09 01:08:28;;;;;;;19.27;8.83;;;;;;;-2.60;100.00;100326.16;10499985;28;20669;-67
2021/12/09 01:13:32;;;;;;;23.20;7.87;;;;;;;-2.47;100.00;100318.25;10500203;28;20324;-66
2021/12/09 01:18:38;;;;;;;17.33;7.47;;;;;;;-2.46;100.00;100314.91;10499464;28;20220;-65
2021/12/09 01:23:42;;;;;;;19.20;7.83;;;;;;;-2.49;100.00;100318.22;10499982;28;20250;-65
2021/12/09 01:28:52;;;;;;;20.17;8.43;;;;;;;-2.50;100.00;100313.91;10499223;28;20246;-63
2021/12/09 01:34:02;;;;;;;27.83;11.50;;;;;;;-2.38;100.00;100316.06;10498969;28;20222;-63
2021/12/09 01:39:08;;;;;;;19.10;7.57;;;;;;;-2.50;100.00;100313.91;10498934;28;20224;-66
2021/12/09 01:44:12;;;;;;;22.03;8.73;;;;;;;-2.42;100.00;100299.00;10498525;28;20235;-65
2021/12/09 01:49:17;;;;;;;19.07;8.00;;;;;;;-2.37;100.00;100287.34;10498451;28;20285;-64
2021/12/09 01:54:23;;;;;;;20.10;8.50;;;;;;;-2.51;100.00;100299.50;10497845;28;20220;-68
2021/12/09 01:59:26;;;;;;;21.67;9.77;;;;;;;-2.50;100.00;100296.13;10498022;28;20236;-65
2021/12/09 02:04:31;;;;;;;23.93;10.63;;;;;;;-2.43;100.00;100290.50;10498190;28;20227;-63
2021/12/09 02:09:35;;;;;;;22.97;10.17;;;;;;;-2.40;100.00;100293.16;10185992;27;9999819;-64
2021/12/09 02:14:41;;;;;;;23.43;9.50;;;;;;;-2.38;100.00;100272.88;10539379;28;20447;-66
2021/12/09 02:19:46;;;;;;;23.77;9.77;;;;;;;-2.41;100.00;100280.38;10539552;28;20222;-67
2021/12/09 02:24:52;;;;;;;23.07;9.30;;;;;;;-2.47;100.00;100282.69;10539364;28;20227;-66
2021/12/09 02:29:57;;;;;;;17.67;7.87;;;;;;;-2.41;100.00;100275.31;10539543;28;20254;-65
2021/12/09 02:35:00;;;;;;;19.53;8.80;;;;;;;-2.42;100.00;100286.28;10539253;28;20218;-65
2021/12/09 02:40:09;;;;;;;23.20;9.60;;;;;;;-2.44;100.00;100282.81;10541477;28;20219;-68
2021/12/09 02:45:13;;;;;;;19.60;8.67;;;;;;;-2.41;100.00;100266.03;10542197;28;20268;-69
2021/12/09 02:50:16;;;;;;;16.47;6.63;;;;;;;-2.40;100.00;100261.81;10541879;28;20223;-68
2021/12/09 02:55:20;;;;;;;20.83;7.70;;;;;;;-2.43;100.00;100251.50;10542131;28;20219;-68
2021/12/09 03:00:24;;;;;;;21.77;9.53;;;;;;;-2.36;100.00;100249.28;10542188;28;20219;-71
2021/12/09 03:05:28;;;;;;;16.03;8.27;;;;;;;-2.45;100.00;100246.38;10541664;28;20680;-69
2021/12/09 03:10:34;;;;;;;16.13;8.13;;;;;;;-2.44;100.00;100250.66;10548574;28;20261;-62
2021/12/09 03:15:37;;;;;;;18.77;8.90;;;;;;;-2.43;100.00;100242.22;10549964;28;20298;-70
2021/12/09 03:20:42;;;;;;;18.20;8.33;;;;;;;-2.51;100.00;100241.06;10549318;28;20220;-64
2021/12/09 03:25:47;;;;;;;16.57;7.40;;;;;;;-2.49;100.00;100248.75;10549141;28;20352;-67
2021/12/09 03:30:50;;;;;;;16.87;8.40;;;;;;;-2.61;100.00;100245.72;10549178;28;20227;-68
2021/12/09 03:35:58;;;;;;;18.17;7.73;;;;;;;-2.71;100.00;100244.47;10548938;28;20245;-66
2021/12/09 03:41:04;;;;;;;18.40;7.53;;;;;;;-2.63;100.00;100253.28;10548621;28;20219;-65
2021/12/09 03:46:07;;;;;;;15.57;6.93;;;;;;;-2.56;100.00;100251.84;10548472;28;20226;-65
2021/12/09 03:51:10;;;;;;;17.13;7.03;;;;;;;-2.56;100.00;100247.63;10547983;28;20587;-70
2021/12/09 03:56:15;;;;;;;19.30;8.23;;;;;;;-2.57;100.00;100252.66;10548149;28;20227;-67
2021/12/09 04:01:19;;;;;;;19.90;7.40;;;;;;;-2.47;100.00;100244.59;10547953;28;20226;-67
2021/12/09 04:06:22;;;;;;;18.60;8.13;;;;;;;-2.60;100.00;100242.34;10547516;28;20602;-68
2021/12/09 04:11:29;;;;;;;16.53;6.80;;;;;;;-2.56;100.00;100251.84;10547475;28;20223;-67
2021/12/09 04:16:36;;;;;;;17.93;8.03;;;;;;;-2.54;100.00;100243.47;10547076;28;20283;-67
2021/12/09 04:21:40;;;;;;;18.10;7.83;;;;;;;-2.49;100.00;100249.63;10546714;28;20770;-66
2021/12/09 04:26:48;;;;;;;16.03;7.40;;;;;;;-2.50;100.00;100252.06;10546501;28;20288;-66
2021/12/09 04:31:52;;;;;;;17.40;7.27;;;;;;;-2.50;100.00;100252.94;10546644;28;20229;-68
2021/12/09 04:36:56;;;;;;;19.37;7.40;;;;;;;-2.52;100.00;100261.34;10546892;28;20603;-67
2021/12/09 04:42:00;;;;;;;16.13;8.43;;;;;;;-2.52;100.00;100268.94;10546248;28;20228;-65
2021/12/09 04:47:04;;;;;;;17.47;7.17;;;;;;;-2.54;100.00;100270.56;10545959;28;20211;-67
2021/12/09 04:52:08;;;;;;;18.30;6.67;;;;;;;-2.53;100.00;100280.78;10546075;28;20314;-66
2021/12/09 04:57:14;;;;;;;17.57;7.67;;;;;;;-2.58;100.00;100284.81;10545719;28;21612;-68
2021/12/09 05:02:25;;;;;;;13.50;6.77;;;;;;;-2.60;100.00;100271.16;10545428;28;20195;-65
2021/12/09 05:07:29;;;;;;;18.17;7.47;;;;;;;-2.50;100.00;100264.78;10545142;28;20220;-65
2021/12/09 05:12:33;;;;;;;17.43;7.47;;;;;;;-2.45;100.00;100292.09;10544866;28;20659;-64
2021/12/09 05:17:43;;;;;;;15.20;7.43;;;;;;;-2.43;100.00;100280.31;10544943;28;20217;-65
2021/12/09 05:22:46;;;;;;;30.43;13.23;;;;;;;-2.49;100.00;100269.94;10544716;28;20215;-67
2021/12/09 05:27:51;;;;;;;18.13;6.77;;;;;;;-2.51;100.00;100283.38;10544322;28;20235;-66
2021/12/09 05:32:54;;;;;;;16.03;7.67;;;;;;;-2.27;100.00;100280.91;10543561;28;20552;-65
2021/12/09 05:37:57;;;;;;;15.53;7.50;;;;;;;-2.33;100.00;100273.97;10544154;28;20200;-65
2021/12/09 05:43:02;;;;;;;18.97;7.10;;;;;;;-2.26;100.00;100282.69;10543772;28;20195;-65
2021/12/09 05:48:07;;;;;;;16.73;7.20;;;;;;;-2.31;100.00;100271.47;10543819;28;20202;-65
2021/12/09 05:53:10;;;;;;;15.20;7.23;;;;;;;-2.26;100.00;100280.13;10543343;28;20598;-64
2021/12/09 05:58:18;;;;;;;15.23;6.87;;;;;;;-2.22;100.00;100290.47;10543169;28;20696;-65
2021/12/09 06:03:23;;;;;;;18.23;8.00;;;;;;;-2.25;100.00;100286.94;10543144;28;20651;-65
2021/12/09 06:08:27;;;;;;;13.50;7.53;;;;;;;-2.27;100.00;100291.97;10542822;28;20198;-65
2021/12/09 06:13:33;;;;;;;19.53;6.67;;;;;;;-2.33;100.00;100282.41;10542856;28;20306;-67
2021/12/09 06:18:37;;;;;;;17.03;8.40;;;;;;;-2.33;100.00;100282.41;10542378;28;20729;-64
2021/12/09 06:23:41;;;;;;;20.77;8.53;;;;;;;-2.25;100.00;100281.84;10542274;28;20275;-67
2021/12/09 06:28:45;;;;;;;14.07;7.20;;;;;;;-2.13;100.00;100275.59;10542021;28;20197;-66
2021/12/09 06:33:49;;;;;;;19.73;8.47;;;;;;;-2.22;100.00;100267.59;10542041;28;20672;-69
2021/12/09 06:38:53;;;;;;;17.13;8.30;;;;;;;-2.28;100.00;100271.59;10542161;28;20184;-65
2021/12/09 06:43:57;;;;;;;21.70;8.50;;;;;;;-2.24;100.00;100273.44;10548478;28;20202;-66
2021/12/09 06:49:00;;;;;;;23.47;8.97;;;;;;;-2.18;100.00;100288.91;10550385;28;20617;-68
2021/12/09 06:54:04;;;;;;;19.47;8.47;;;;;;;-2.17;100.00;100288.13;10550268;28;20721;-67
2021/12/09 06:59:10;;;;;;;16.80;8.33;;;;;;;-2.07;100.00;100288.50;10550186;28;20202;-66
2021/12/09 07:04:13;;;;;;;17.93;8.47;;;;;;;-2.13;100.00;100297.59;10549891;28;20198;-66
2021/12/09 07:09:17;;;;;;;16.17;7.87;;;;;;;-2.00;100.00;100307.44;10549825;28;20266;-67
2021/12/09 07:14:21;;;;;;;16.47;8.03;;;;;;;-2.05;100.00;100296.22;10549341;28;20216;-69
2021/12/09 07:19:25;;;;;;;20.10;8.43;;;;;;;-2.02;100.00;100294.63;10547656;28;20285;-66
2021/12/09 07:24:28;;;;;;;14.63;8.03;;;;;;;-1.96;100.00;100299.97;10143483;27;9999835;-65
2021/12/09 07:29:33;;;;;;;19.53;9.10;;;;;;;-1.95;100.00;100288.13;10503697;28;20279;-67
2021/12/09 07:34:37;;;;;;;19.80;8.60;;;;;;;-2.01;100.00;100281.13;10502991;28;20223;-68
2021/12/09 07:39:40;;;;;;;17.07;8.63;;;;;;;-1.83;100.00;100283.50;10502571;28;20220;-65
2021/12/09 07:44:45;;;;;;;18.00;8.67;;;;;;;-1.89;100.00;100289.22;10502451;28;20374;-67
2021/12/09 07:49:48;;;;;;;17.27;9.00;;;;;;;-1.90;100.00;100292.59;10502126;28;20208;-65
2021/12/09 07:54:52;;;;;;;21.63;8.63;;;;;;;-1.80;100.00;100306.50;10499893;28;20228;-67
2021/12/09 07:59:57;;;;;;;19.30;8.33;;;;;;;-1.81;100.00;100298.00;10502538;28;20303;-66
2021/12/09 08:05:00;;;;;;;18.10;8.70;;;;;;;-1.72;100.00;100303.44;10502010;28;20708;-67
2021/12/09 08:10:04;;;;;;;19.57;8.47;;;;;;;-1.69;100.00;100293.38;10502103;28;20216;-68
2021/12/09 08:15:11;;;;;;;18.03;8.67;;;;;;;-1.60;100.00;100300.47;10502659;28;20706;-66
2021/12/09 08:20:16;;;;;;;15.10;7.37;;;;;;;-1.49;100.00;100306.84;10505099;28;20753;-65
2021/12/09 08:25:19;;;;;;;18.27;9.33;;;;;;;-1.53;100.00;100305.84;10504137;28;20630;-67
2021/12/09 08:30:26;;;;;;;17.90;8.73;;;;;;;-1.35;100.00;100290.38;10504809;28;20235;-65
2021/12/09 08:35:50;;;;;;;17.77;8.93;;;;;;;-1.38;100.00;100270.78;10503832;28;20208;-66
2021/12/09 08:40:54;;;;;;;50.80;25.10;;;;;;;-1.34;100.00;100284.47;10504694;28;20657;-68
2021/12/09 08:45:59;;;;;;;20.30;9.17;;;;;;;-1.26;100.00;100294.13;10503378;28;20216;-67
2021/12/09 08:51:03;;;;;;;19.17;8.80;;;;;;;-1.29;100.00;100306.75;10503671;28;20312;-67
2021/12/09 08:56:06;;;;;;;20.70;8.63;;;;;;;-1.29;100.00;100323.69;10486131;28;20709;-65
2021/12/09 09:01:12;;;;;;;19.03;9.13;;;;;;;-1.31;100.00;100322.75;10461990;28;20223;-66
2021/12/09 09:06:16;;;;;;;19.83;9.97;;;;;;;-1.24;100.00;100314.53;10460647;28;20623;-67
2021/12/09 09:11:21;;;;;;;20.10;9.60;;;;;;;-1.16;100.00;100303.81;10461475;28;20568;-65
2021/12/09 09:16:26;;;;;;;22.67;10.03;;;;;;;-1.11;100.00;100296.34;10461496;28;20217;-64
2021/12/09 09:21:29;;;;;;;20.07;10.37;;;;;;;-0.98;100.00;100287.47;10461171;28;20220;-67
2021/12/09 09:26:33;;;;;;;20.00;10.50;;;;;;;-1.01;100.00;100313.66;10460809;28;20247;-67
2021/12/09 09:31:40;;;;;;;22.07;9.90;;;;;;;-0.98;100.00;100284.91;10460345;28;20305;-67
2021/12/09 09:36:44;;;;;;;19.70;9.90;;;;;;;-0.95;100.00;100305.38;10460846;28;20680;-67
2021/12/09 09:41:56;;;;;;;20.40;9.77;;;;;;;-1.06;100.00;100304.13;10460442;28;20260;-67
2021/12/09 09:47:02;;;;;;;27.03;12.67;;;;;;;-0.96;100.00;100301.09;10460422;28;20642;-67
2021/12/09 09:52:08;;;;;;;23.07;9.87;;;;;;;-0.93;100.00;100291.88;10460147;28;20297;-67
2021/12/09 09:57:12;;;;;;;21.53;11.53;;;;;;;-1.05;100.00;100291.44;10459988;28;20217;-66
2021/12/09 10:02:17;;;;;;;24.17;10.80;;;;;;;-0.96;100.00;100283.25;10459773;28;20305;-67
2021/12/09 10:07:22;;;;;;;19.00;10.00;;;;;;;-0.98;100.00;100277.28;10459548;28;20227;-66
2021/12/09 10:12:26;;;;;;;19.50;9.73;;;;;;;-0.86;100.00;100253.06;10459656;28;20327;-68
2021/12/09 10:17:30;;;;;;;22.47;9.50;;;;;;;-0.72;100.00;100220.38;10458867;28;20239;-68
2021/12/09 10:22:44;;;;;;;22.03;10.97;;;;;;;-0.59;100.00;100218.31;10457793;28;20216;-66
2021/12/09 10:27:58;;;;;;;23.93;10.03;;;;;;;-0.60;100.00;100231.84;10124901;27;10000283;-65
2021/12/09 10:33:04;;;;;;;22.93;9.97;;;;;;;-0.53;100.00;100238.88;10497161;28;20224;-67
2021/12/09 10:38:08;;;;;;;19.77;10.47;;;;;;;-0.62;100.00;100230.94;10496832;28;20679;-67
2021/12/09 10:43:18;;;;;;;20.27;10.17;;;;;;;-0.59;100.00;100228.50;10497014;28;20307;-66
2021/12/09 10:48:26;;;;;;;20.87;9.37;;;;;;;-0.67;100.00;100229.91;10496455;28;20220;-69
2021/12/09 10:53:35;;;;;;;20.57;9.20;;;;;;;-0.58;100.00;100242.09;10496708;28;20733;-67
2021/12/09 10:58:42;;;;;;;20.83;8.83;;;;;;;-0.60;100.00;100238.63;10494139;28;20295;-66
2021/12/09 11:03:49;;;;;;;18.13;9.07;;;;;;;-0.64;100.00;100245.28;10496447;28;20527;-67
2021/12/09 11:08:54;;;;;;;19.43;8.53;;;;;;;-0.65;100.00;100238.47;10495987;28;20563;-66
2021/12/09 11:14:00;;;;;;;24.53;10.20;;;;;;;-0.65;100.00;100232.50;10494393;28;20254;-66
2021/12/09 11:19:11;;;;;;;23.90;9.50;;;;;;;-0.55;100.00;100219.28;10487326;28;20231;-67
2021/12/09 11:24:17;;;;;;;24.00;9.90;;;;;;;-0.64;100.00;100201.97;10495795;28;20250;-66
2021/12/09 11:29:24;;;;;;;26.93;10.47;;;;;;;-0.56;100.00;100187.81;10475736;28;20299;-66
2021/12/09 11:34:36;;;;;;;21.23;9.93;;;;;;;-0.50;100.00;100188.00;10462004;28;20315;-66
2021/12/09 11:39:40;;;;;;;27.20;12.73;;;;;;;-0.46;100.00;100166.88;10462342;28;20226;-67
2021/12/09 11:44:45;;;;;;;18.40;10.60;;;;;;;-0.38;100.00;100178.16;10461611;28;20217;-65
2021/12/09 11:49:51;;;;;;;26.43;12.20;;;;;;;-0.43;100.00;100163.59;10461510;28;20558;-66
2021/12/09 11:55:00;;;;;;;24.17;11.80;;;;;;;-0.29;100.00;100167.38;10461389;28;20250;-67
2021/12/09 12:11:41;;;;;;;23.83;11.00;;;;;;;-0.28;100.00;100141.09;10460986;28;20277;-66
2021/12/09 12:16:57;;;;;;;23.53;11.03;;;;;;;-0.25;100.00;100134.41;10460579;28;20200;-67
2021/12/09 12:22:44;;;;;;;23.27;11.43;;;;;;;-0.27;100.00;100130.94;10460691;28;20267;-65
2021/12/09 12:27:56;;;;;;;25.53;11.00;;;;;;;-0.21;100.00;100131.09;10490639;28;20254;-66
2021/12/09 12:38:47;;;;;;;25.43;11.10;;;;;;;-0.25;100.00;100123.31;10459504;28;20263;-65
2021/12/09 12:43:56;;;;;;;25.13;11.50;;;;;;;-0.11;100.00;100120.34;10459454;28;20224;-67
2021/12/09 12:49:09;;;;;;;21.87;10.30;;;;;;;-0.28;100.00;100144.50;10459588;28;20209;-65
2021/12/09 13:00:11;;;;;;;30.30;11.87;;;;;;;-0.35;100.00;100131.53;10449149;28;20688;-64
2021/12/09 13:05:28;;;;;;;29.73;15.23;;;;;;;-0.31;100.00;100134.19;10461841;28;20226;-66
2021/12/09 13:10:47;;;;;;;23.47;10.37;;;;;;;-0.42;100.00;100121.97;10461749;28;20250;-64
2021/12/09 13:16:07;;;;;;;23.73;11.07;;;;;;;-0.52;100.00;100125.91;10461298;28;20308;-68
2021/12/09 13:21:33;;;;;;;22.80;10.43;;;;;;;-0.36;100.00;100135.75;10461209;28;20549;-66
2021/12/09 13:27:44;;;;;;;22.73;9.93;;;;;;;-0.35;100.00;100137.50;10460700;28;20236;-66
2021/12/09 13:38:41;;;;;;;20.70;10.27;;;;;;;-0.38;100.00;100160.31;10457256;28;20682;-63
2021/12/09 13:49:18;;;;;;;22.17;10.60;;;;;;;-0.36;100.00;100139.97;10464459;28;20216;-65
2021/12/09 13:54:25;;;;;;;24.23;10.40;;;;;;;-0.34;100.00;100140.91;10500768;28;20683;-64
2021/12/09 13:59:34;;;;;;;19.13;9.73;;;;;;;-0.30;100.00;100130.84;10500713;28;20244;-63
2021/12/09 14:04:37;;;;;;;23.13;10.33;;;;;;;-0.40;100.00;100128.81;10501069;28;20199;-65
2021/12/09 14:09:45;;;;;;;25.77;10.60;;;;;;;-0.42;100.00;100116.88;10500228;28;20192;-65
2021/12/09 14:14:59;;;;;;;22.57;10.13;;;;;;;-0.33;100.00;100110.34;10500740;28;20269;-65
2021/12/09 14:20:06;;;;;;;22.33;9.87;;;;;;;-0.50;100.00;100119.19;10500129;28;20195;-64
2021/12/09 14:25:12;;;;;;;34.53;15.50;;;;;;;-0.48;100.00;100120.09;10500735;28;20580;-64
2021/12/09 14:30:17;;;;;;;23.93;10.33;;;;;;;-0.43;100.00;100126.19;10499808;28;20188;-64
2021/12/09 14:35:24;;;;;;;22.23;9.20;;;;;;;-0.49;100.00;100117.50;10500558;28;20301;-65
2021/12/09 14:40:36;;;;;;;24.00;10.47;;;;;;;-0.48;100.00;100122.66;10499598;28;20215;-63
2021/12/09 14:45:53;;;;;;;20.33;9.43;;;;;;;-0.53;100.00;100133.50;10500306;28;20274;-64
2021/12/09 14:50:58;;;;;;;26.67;12.73;;;;;;;-0.50;100.00;100136.19;10487562;28;20412;-64
2021/12/09 14:56:01;;;;;;;23.17;11.77;;;;;;;-0.46;100.00;100130.34;10458248;28;20219;-67
2021/12/09 15:01:15;;;;;;;28.63;12.43;;;;;;;-0.51;100.00;100127.66;10457975;28;20531;-65
2021/12/09 15:06:28;;;;;;;26.13;11.40;;;;;;;-0.51;100.00;100139.53;10466595;28;20196;-67
2021/12/09 15:11:36;;;;;;;29.30;11.43;;;;;;;-0.44;100.00;100141.44;10466443;28;20207;-65
2021/12/09 15:16:41;;;;;;;32.40;13.93;;;;;;;-0.45;100.00;100140.56;10465953;28;20554;-65
2021/12/09 15:21:44;;;;;;;33.23;12.87;;;;;;;-0.46;100.00;100128.66;10465764;28;20199;-67
2021/12/09 15:26:53;;;;;;;29.30;12.30;;;;;;;-0.44;100.00;100124.47;10479131;28;20311;-66
2021/12/09 15:32:08;;;;;;;31.23;12.50;;;;;;;-0.51;100.00;100109.81;10153574;27;9999730;-66
2021/12/09 15:37:14;;;;;;;27.50;12.40;;;;;;;-0.52;100.00;100110.63;10503481;28;20207;-65
2021/12/09 15:42:22;;;;;;;30.57;14.00;;;;;;;-0.44;100.00;100113.41;10502600;28;20211;-66
2021/12/09 15:47:29;;;;;;;31.60;12.43;;;;;;;-0.31;100.00;100101.06;10503397;28;20710;-65
2021/12/09 15:52:35;;;;;;;30.17;13.73;;;;;;;-0.35;100.00;100099.28;10502386;28;20287;-65
2021/12/09 15:57:41;;;;;;;31.20;12.87;;;;;;;-0.39;100.00;100092.34;10505773;28;20222;-66
2021/12/09 16:02:46;;;;;;;37.67;13.83;;;;;;;-0.35;100.00;100075.44;10505508;28;20199;-66
2021/12/09 16:07:50;;;;;;;37.47;15.13;;;;;;;-0.43;100.00;100075.22;10505799;28;20275;-66
2021/12/09 16:12:54;;;;;;;31.47;14.10;;;;;;;-0.41;100.00;100073.59;10504942;28;20206;-66
2021/12/09 16:17:58;;;;;;;36.40;14.47;;;;;;;-0.44;100.00;100091.34;10504782;28;20661;-65
2021/12/09 16:23:02;;;;;;;37.57;14.07;;;;;;;-0.48;100.00;100083.53;10504551;28;20203;-66
2021/12/09 16:28:07;;;;;;;32.10;13.97;;;;;;;-0.46;100.00;100080.25;10504267;28;20246;-67
2021/12/09 16:33:12;;;;;;;35.67;14.30;;;;;;;-0.37;100.00;100075.41;10504626;28;20622;-66
2021/12/09 16:38:17;;;;;;;35.73;14.10;;;;;;;-0.24;100.00;100068.94;10502654;28;20220;-66
2021/12/09 16:43:27;;;;;;;34.10;13.47;;;;;;;-0.35;100.00;100078.00;10487514;28;20205;-65
2021/12/09 16:48:34;;;;;;;39.83;16.07;;;;;;;-0.40;100.00;100105.88;10462592;28;20296;-67
2021/12/09 16:53:45;;;;;;;34.97;14.33;;;;;;;-0.38;100.00;100103.41;10462568;28;20224;-66
2021/12/09 16:58:58;;;;;;;30.97;12.47;;;;;;;-0.33;100.00;100101.84;10479840;28;20665;-69
2021/12/09 17:04:07;;;;;;;27.23;12.53;;;;;;;-0.33;100.00;100100.16;10503683;28;20202;-69
2021/12/09 17:09:10;;;;;;;28.30;12.77;;;;;;;-0.38;100.00;100111.06;10503305;28;20219;-68
2021/12/09 17:14:16;;;;;;;31.40;13.13;;;;;;;-0.35;100.00;100085.66;10473956;28;20678;-68
2021/12/09 17:19:21;;;;;;;28.47;13.27;;;;;;;-0.29;100.00;100078.16;10461301;28;20619;-69
2021/12/09 17:24:25;;;;;;;32.33;13.50;;;;;;;-0.37;100.00;100077.09;10461187;28;20565;-67
2021/12/09 17:29:30;;;;;;;33.07;13.17;;;;;;;-0.39;100.00;100079.59;10460105;28;20197;-70
2021/12/09 17:34:37;;;;;;;34.23;14.13;;;;;;;-0.37;100.00;100072.88;10460975;28;20227;-67
2021/12/09 17:39:40;;;;;;;27.67;13.20;;;;;;;-0.34;100.00;100061.88;10460896;28;20195;-66
2021/12/09 17:44:43;;;;;;;32.23;13.30;;;;;;;-0.39;100.00;100055.78;10460518;28;20653;-68
2021/12/09 17:49:50;;;;;;;25.77;11.13;;;;;;;-0.39;100.00;100060.88;10460543;28;20659;-66
2021/12/09 17:54:54;;;;;;;25.17;11.13;;;;;;;-0.40;100.00;100052.34;10460236;28;20615;-68
2021/12/09 17:59:57;;;;;;;31.67;13.67;;;;;;;-0.38;100.00;100045.63;10460068;28;20552;-68
2021/12/09 18:05:03;;;;;;;110.83;51.63;;;;;;;-0.44;100.00;100049.69;10459805;28;20230;-67
2021/12/09 18:10:07;;;;;;;32.03;12.33;;;;;;;-0.44;100.00;100057.34;10460028;28;20281;-66
2021/12/09 18:15:16;;;;;;;29.43;13.43;;;;;;;-0.35;100.00;100053.38;10456438;28;20622;-66
2021/12/09 18:20:23;;;;;;;26.73;12.40;;;;;;;-0.35;100.00;100032.13;10456295;28;20189;-67
2021/12/09 18:25:27;;;;;;;30.97;13.23;;;;;;;-0.35;100.00;100019.38;10455865;28;20225;-67
2021/12/09 18:30:47;;;;;;;30.10;12.47;;;;;;;-0.34;100.00;100018.53;10455930;28;20188;-65
2021/12/09 18:35:52;;;;;;;35.53;13.13;;;;;;;-0.38;100.00;100030.34;10455606;28;20251;-67
2021/12/09 18:40:58;;;;;;;31.80;12.47;;;;;;;-0.36;100.00;100015.94;10455658;28;20699;-65
2021/12/09 18:46:03;;;;;;;29.17;11.23;;;;;;;-0.39;100.00;100018.41;10455417;28;20278;-63
2021/12/09 18:51:14;;;;;;;27.87;10.97;;;;;;;-0.38;100.00;100032.88;10141082;27;9999796;-72
2021/12/09 18:56:28;;;;;;;26.93;11.93;;;;;;;-0.35;100.00;100035.53;10455670;28;20291;-67
2021/12/09 19:01:34;;;;;;;30.63;12.70;;;;;;;-0.38;100.00;100029.50;10455183;28;20196;-68
2021/12/09 19:06:42;;;;;;;32.43;14.00;;;;;;;-0.29;100.00;100034.81;10455270;28;20205;-67
2021/12/09 19:11:47;;;;;;;29.97;13.10;;;;;;;-0.34;100.00;100037.25;10455324;28;20200;-66
2021/12/09 19:16:55;;;;;;;29.20;12.73;;;;;;;-0.45;100.00;100028.44;10454938;28;20664;-65
2021/12/09 19:22:00;;;;;;;34.03;13.97;;;;;;;-0.39;100.00;100032.84;10455188;28;20285;-67
2021/12/09 19:27:04;;;;;;;30.37;13.83;;;;;;;-0.34;100.00;100026.19;10454727;28;20712;-67
2021/12/09 19:32:09;;;;;;;30.13;12.30;;;;;;;-0.34;100.00;100023.63;10454711;28;20288;-67
2021/12/09 19:37:14;;;;;;;25.60;12.23;;;;;;;-0.39;100.00;100017.56;10454752;28;20220;-67
2021/12/09 19:42:17;;;;;;;27.23;12.53;;;;;;;-0.36;100.00;100018.50;10454564;28;20203;-66
2021/12/09 19:47:23;;;;;;;30.10;12.27;;;;;;;-0.33;100.00;100005.81;10461322;28;20250;-67
2021/12/09 19:52:28;;;;;;;31.57;12.23;;;;;;;-0.37;100.00;100004.03;10501974;28;20214;-67
2021/12/09 19:57:31;;;;;;;28.60;12.83;;;;;;;-0.29;100.00;99999.13;10502822;28;20212;-70
2021/12/09 20:02:35;;;;;;;32.23;14.23;;;;;;;-0.26;100.00;99974.59;10502501;28;20192;-67
2021/12/09 20:07:42;;;;;;;25.80;10.80;;;;;;;-0.29;100.00;99969.41;10502661;28;20193;-67
2021/12/09 20:12:45;;;;;;;28.10;11.27;;;;;;;-0.27;100.00;99965.22;10502489;28;20673;-66
2021/12/09 20:17:49;;;;;;;29.87;13.60;;;;;;;-0.23;100.00;99956.84;10502276;28;20571;-67
2021/12/09 20:22:53;;;;;;;27.60;12.67;;;;;;;-0.29;100.00;99953.25;10502137;28;20216;-68
2021/12/09 20:27:57;;;;;;;26.33;10.87;;;;;;;-0.25;100.00;99950.84;10502285;28;20326;-67
2021/12/09 20:33:00;;;;;;;27.20;13.03;;;;;;;-0.19;100.00;99950.13;10501897;28;20198;-67
2021/12/09 20:38:05;;;;;;;29.70;13.27;;;;;;;-0.16;100.00;99951.09;10501321;28;20575;-69
2021/12/09 20:43:08;;;;;;;25.57;11.67;;;;;;;-0.18;100.00;99937.44;10501136;28;20208;-65
2021/12/09 20:48:11;;;;;;;29.97;11.43;;;;;;;-0.13;100.00;99929.88;10508103;28;20219;-66
2021/12/09 20:53:19;;;;;;;27.87;12.27;;;;;;;-0.12;100.00;99923.94;10542427;28;20586;-66
2021/12/09 20:58:25;;;;;;;27.53;11.20;;;;;;;-0.10;100.00;99920.63;10542255;28;20649;-66
2021/12/09 21:03:28;;;;;;;25.13;11.13;;;;;;;-0.16;100.00;99928.13;10542258;28;20212;-68
2021/12/09 21:08:33;;;;;;;26.57;12.73;;;;;;;-0.10;100.00;99912.97;10541955;28;20222;-66
2021/12/09 21:13:39;;;;;;;27.17;11.13;;;;;;;-0.05;100.00;99898.63;10541972;28;20208;-67
2021/12/09 21:18:45;;;;;;;28.17;10.67;;;;;;;-0.08;100.00;99898.56;10541494;28;20215;-65
2021/12/09 21:23:50;;;;;;;26.03;12.03;;;;;;;-0.01;100.00;99881.72;10541230;28;20302;-65
2021/12/09 21:28:57;;;;;;;26.20;11.80;;;;;;;0.02;100.00;99888.59;10541412;28;20302;-65
2021/12/09 21:34:03;;;;;;;24.77;11.40;;;;;;;0.06;100.00;99883.59;10540977;28;20223;-68
2021/12/09 21:39:11;;;;;;;21.77;10.60;;;;;;;0.06;100.00;99873.41;10540657;28;20219;-63
2021/12/09 21:44:14;;;;;;;28.07;11.77;;;;;;;0.07;100.00;99861.50;10540980;28;20290;-66
2021/12/09 21:49:18;;;;;;;20.93;9.40;;;;;;;0.03;100.00;99859.72;10524019;28;20239;-66
2021/12/09 21:54:24;;;;;;;22.83;9.40;;;;;;;0.08;100.00;99853.03;10498293;28;20299;-67
2021/12/09 21:59:28;;;;;;;21.83;11.20;;;;;;;0.16;100.00;99838.75;10498331;28;20238;-65
2021/12/09 22:04:31;;;;;;;22.17;9.97;;;;;;;0.21;100.00;99832.91;10498028;28;20596;-69
2021/12/09 22:09:37;;;;;;;24.47;10.73;;;;;;;0.19;100.00;99833.75;10498227;28;20215;-68
2021/12/09 22:14:40;;;;;;;22.90;9.90;;;;;;;0.17;100.00;99833.72;10497296;28;20226;-66
2021/12/09 22:19:44;;;;;;;21.00;10.50;;;;;;;0.22;100.00;99821.03;10497632;28;20220;-64
2021/12/09 22:24:49;;;;;;;26.40;11.60;;;;;;;0.20;100.00;99823.56;10497494;28;20585;-68
2021/12/09 22:29:53;;;;;;;23.40;10.97;;;;;;;0.22;100.00;99821.91;10497376;28;20222;-65
2021/12/09 22:34:56;;;;;;;22.20;10.47;;;;;;;0.26;100.00;99812.63;10497343;28;20218;-65
2021/12/09 22:40:04;;;;;;;23.57;12.00;;;;;;;0.21;100.00;99804.03;10497315;28;20220;-66
2021/12/09 22:45:09;;;;;;;26.37;11.67;;;;;;;0.20;100.00;99792.06;10497203;28;20302;-66
2021/12/09 22:50:17;;;;;;;21.53;10.03;;;;;;;0.38;100.00;99778.00;10520709;28;20227;-67
2021/12/09 22:55:28;;;;;;;23.40;9.97;;;;;;;0.40;100.00;99772.97;10524359;28;20207;-65
2021/12/09 23:00:42;;;;;;;20.93;9.43;;;;;;;0.45;100.00;99769.66;10496843;28;20216;-66
2021/12/09 23:05:49;;;;;;;18.33;9.60;;;;;;;0.33;100.00;99771.13;10497106;28;20243;-64
2021/12/09 23:10:54;;;;;;;21.30;9.47;;;;;;;0.36;100.00;99766.06;10496267;28;20365;-66
2021/12/09 23:15:58;;;;;;;23.33;9.30;;;;;;;0.43;100.00;99765.38;10496492;28;20219;-65
2021/12/09 23:21:01;;;;;;;18.10;9.07;;;;;;;0.45;100.00;99761.16;10498675;28;20208;-65
2021/12/09 23:26:06;;;;;;;24.10;9.77;;;;;;;0.35;100.00;99764.31;10503867;28;20315;-65